sensor_id;sensor_type;location;lat;lon;timestamp;pressure;altitude;pressure_sealevel;temperature;humidity
8039;BME280;4062;49.844;8.120;2023-01-31T00:01:23;100187.53;;;13.67;54.67
8039;BME280;4062;49.844;8.120;2023-01-31T00:03:24;100181.38;;;13.67;54.62
8039;BME280;4062;49.844;8.120;2023-01-31T00:05:27;100182.22;;;13.67;54.59
8039;BME280;4062;49.844;8.120;2023-01-31T00:07:30;100183.13;;;13.68;54.42
8039;BME280;4062;49.844;8.120;2023-01-31T00:09:31;100177.84;;;13.66;54.52
8039;BME280;4062;49.844;8.120;2023-01-31T00:11:32;100178.72;;;13.67;54.56
8039;BME280;4062;49.844;8.120;2023-01-31T00:13:32;100188.44;;;13.66;54.51
8039;BME280;4062;49.844;8.120;2023-01-31T00:15:33;100190.19;;;13.67;54.56
8039;BME280;4062;49.844;8.120;2023-01-31T00:17:33;100192.84;;;13.67;54.61
8039;BME280;4062;49.844;8.120;2023-01-31T00:19:34;100185.78;;;13.66;54.50
8039;BME280;4062;49.844;8.120;2023-01-31T00:21:34;100188.44;;;13.66;54.46
8039;BME280;4062;49.844;8.120;2023-01-31T00:23:35;100183.13;;;13.66;54.61
8039;BME280;4062;49.844;8.120;2023-01-31T00:25:36;100182.28;;;13.66;54.62
8039;BME280;4062;49.844;8.120;2023-01-31T00:27:36;100182.28;;;13.66;54.52
8039;BME280;4062;49.844;8.120;2023-01-31T00:29:37;100189.34;;;13.67;54.51
8039;BME280;4062;49.844;8.120;2023-01-31T00:31:37;100174.31;;;13.66;54.59
8039;BME280;4062;49.844;8.120;2023-01-31T00:33:39;100176.09;;;13.65;54.62
8039;BME280;4062;49.844;8.120;2023-01-31T00:35:40;100179.63;;;13.66;54.55
8039;BME280;4062;49.844;8.120;2023-01-31T00:37:41;100180.53;;;13.65;54.54
8039;BME280;4062;49.844;8.120;2023-01-31T00:39:41;100181.38;;;13.65;54.63
8039;BME280;4062;49.844;8.120;2023-01-31T00:41:42;100183.19;;;13.65;54.54
8039;BME280;4062;49.844;8.120;2023-01-31T00:43:46;100188.50;;;13.65;54.76
8039;BME280;4062;49.844;8.120;2023-01-31T00:45:46;100185.88;;;13.63;54.63
8039;BME280;4062;49.844;8.120;2023-01-31T00:47:47;100191.16;;;13.65;54.63
8039;BME280;4062;49.844;8.120;2023-01-31T00:49:47;100182.28;;;13.64;54.46
8039;BME280;4062;49.844;8.120;2023-01-31T00:51:47;100182.28;;;13.64;54.71
8039;BME280;4062;49.844;8.120;2023-01-31T00:53:49;100177.88;;;13.65;54.46
8039;BME280;4062;49.844;8.120;2023-01-31T00:55:50;100169.06;;;13.63;54.55
8039;BME280;4062;49.844;8.120;2023-01-31T00:57:51;100177.88;;;13.65;54.59
8039;BME280;4062;49.844;8.120;2023-01-31T00:59:52;100177.94;;;13.63;54.63
8039;BME280;4062;49.844;8.120;2023-01-31T01:01:52;100185.88;;;13.63;54.46
8039;BME280;4062;49.844;8.120;2023-01-31T01:03:54;100190.25;;;13.64;54.57
8039;BME280;4062;49.844;8.120;2023-01-31T01:05:55;100188.53;;;13.63;54.50
8039;BME280;4062;49.844;8.120;2023-01-31T01:07:55;100189.44;;;13.62;54.30
8039;BME280;4062;49.844;8.120;2023-01-31T01:09:57;100189.44;;;13.62;54.50
8039;BME280;4062;49.844;8.120;2023-01-31T01:11:57;100184.16;;;13.62;54.53
8039;BME280;4062;49.844;8.120;2023-01-31T01:13:58;100185.91;;;13.62;54.64
8039;BME280;4062;49.844;8.120;2023-01-31T01:16:08;100198.28;;;13.63;54.48
8039;BME280;4062;49.844;8.120;2023-01-31T01:18:09;100197.41;;;13.62;54.61
8039;BME280;4062;49.844;8.120;2023-01-31T01:20:11;100202.72;;;13.62;54.31
8039;BME280;4062;49.844;8.120;2023-01-31T01:22:12;100201.84;;;13.62;54.44
8039;BME280;4062;49.844;8.120;2023-01-31T01:24:17;100195.66;;;13.61;54.60
8039;BME280;4062;49.844;8.120;2023-01-31T01:26:20;100200.97;;;13.61;54.53
8039;BME280;4062;49.844;8.120;2023-01-31T01:28:22;100203.63;;;13.61;54.45
8039;BME280;4062;49.844;8.120;2023-01-31T01:30:23;100208.94;;;13.61;54.58
8039;BME280;4062;49.844;8.120;2023-01-31T01:32:23;100202.75;;;13.60;54.67
8039;BME280;4062;49.844;8.120;2023-01-31T01:34:26;100208.06;;;13.60;54.61
8039;BME280;4062;49.844;8.120;2023-01-31T01:36:26;100215.16;;;13.60;54.55
8039;BME280;4062;49.844;8.120;2023-01-31T01:38:27;100213.38;;;13.60;54.71
8039;BME280;4062;49.844;8.120;2023-01-31T01:40:34;100218.69;;;13.60;54.45
8039;BME280;4062;49.844;8.120;2023-01-31T01:42:35;100223.97;;;13.60;54.55
8039;BME280;4062;49.844;8.120;2023-01-31T01:46:43;100220.47;;;13.60;54.60
8039;BME280;4062;49.844;8.120;2023-01-31T01:48:48;100216.06;;;13.59;54.54
8039;BME280;4062;49.844;8.120;2023-01-31T01:50:49;100222.22;;;13.59;54.64
8039;BME280;4062;49.844;8.120;2023-01-31T01:53:14;100228.44;;;13.60;54.62
8039;BME280;4062;49.844;8.120;2023-01-31T01:55:17;100224.03;;;13.59;54.60
8039;BME280;4062;49.844;8.120;2023-01-31T01:57:23;100211.63;;;13.59;54.41
8039;BME280;4062;49.844;8.120;2023-01-31T01:59:30;100219.59;;;13.59;54.51
8039;BME280;4062;49.844;8.120;2023-01-31T02:01:35;100209.91;;;13.58;54.57
8039;BME280;4062;49.844;8.120;2023-01-31T02:03:41;100218.72;;;13.59;54.36
8039;BME280;4062;49.844;8.120;2023-01-31T02:05:45;100217.88;;;13.58;54.55
8039;BME280;4062;49.844;8.120;2023-01-31T02:07:47;100217.88;;;13.58;54.53
8039;BME280;4062;49.844;8.120;2023-01-31T02:10:02;100222.28;;;13.58;54.62
8039;BME280;4062;49.844;8.120;2023-01-31T02:12:04;100224.94;;;13.58;54.48
8039;BME280;4062;49.844;8.120;2023-01-31T02:14:07;100227.59;;;13.58;54.59
8039;BME280;4062;49.844;8.120;2023-01-31T02:16:09;100217.88;;;13.57;54.45
8039;BME280;4062;49.844;8.120;2023-01-31T02:18:09;100224.94;;;13.58;54.59
8039;BME280;4062;49.844;8.120;2023-01-31T02:20:20;100224.06;;;13.57;54.56
8039;BME280;4062;49.844;8.120;2023-01-31T02:22:52;100216.97;;;13.58;54.63
8039;BME280;4062;49.844;8.120;2023-01-31T02:25:33;100218.75;;;13.57;54.55
8039;BME280;4062;49.844;8.120;2023-01-31T02:40:14;100204.66;;;13.55;54.64
8039;BME280;4062;49.844;8.120;2023-01-31T02:42:23;100208.16;;;13.56;54.59
8039;BME280;4062;49.844;8.120;2023-01-31T02:46:58;100199.34;;;13.55;54.62
8039;BME280;4062;49.844;8.120;2023-01-31T02:51:44;100194.03;;;13.55;54.63
8039;BME280;4062;49.844;8.120;2023-01-31T02:54:16;100193.13;;;13.55;54.31
8039;BME280;4062;49.844;8.120;2023-01-31T02:56:24;100198.44;;;13.55;54.23
8039;BME280;4062;49.844;8.120;2023-01-31T02:58:31;100203.75;;;13.55;54.63
8039;BME280;4062;49.844;8.120;2023-01-31T03:00:34;100205.56;;;13.54;54.44
8039;BME280;4062;49.844;8.120;2023-01-31T03:02:36;100211.72;;;13.55;54.50
8039;BME280;4062;49.844;8.120;2023-01-31T03:04:36;100214.38;;;13.55;54.58
8039;BME280;4062;49.844;8.120;2023-01-31T03:06:56;100217.03;;;13.55;54.10
8039;BME280;4062;49.844;8.120;2023-01-31T03:09:38;100210.88;;;13.54;54.38
8039;BME280;4062;49.844;8.120;2023-01-31T03:12:02;100212.66;;;13.54;54.63
8039;BME280;4062;49.844;8.120;2023-01-31T03:14:26;100224.09;;;13.56;54.24
8039;BME280;4062;49.844;8.120;2023-01-31T03:16:51;100211.78;;;13.53;54.55
8039;BME280;4062;49.844;8.120;2023-01-31T03:19:20;100212.66;;;13.54;54.57
8039;BME280;4062;49.844;8.120;2023-01-31T03:21:35;100211.78;;;13.53;54.72
8039;BME280;4062;49.844;8.120;2023-01-31T03:23:40;100213.53;;;13.54;54.41
8039;BME280;4062;49.844;8.120;2023-01-31T03:25:43;100217.97;;;13.54;54.41
8039;BME280;4062;49.844;8.120;2023-01-31T03:27:54;100228.59;;;13.54;54.39
8039;BME280;4062;49.844;8.120;2023-01-31T03:30:04;100238.31;;;13.53;54.46
8039;BME280;4062;49.844;8.120;2023-01-31T03:34:23;100229.50;;;13.53;54.47
8039;BME280;4062;49.844;8.120;2023-01-31T03:36:52;100227.69;;;13.53;54.46
8039;BME280;4062;49.844;8.120;2023-01-31T03:39:18;100230.41;;;13.52;54.47
8039;BME280;4062;49.844;8.120;2023-01-31T03:41:30;100240.13;;;13.53;54.39
8039;BME280;4062;49.844;8.120;2023-01-31T03:45:45;100239.22;;;13.52;54.32
8039;BME280;4062;49.844;8.120;2023-01-31T03:47:48;100248.97;;;13.52;54.50
8039;BME280;4062;49.844;8.120;2023-01-31T03:49:53;100239.22;;;13.52;54.56
8039;BME280;4062;49.844;8.120;2023-01-31T03:52:03;100248.97;;;13.52;54.50
8039;BME280;4062;49.844;8.120;2023-01-31T03:54:07;100247.22;;;13.51;54.56
8039;BME280;4062;49.844;8.120;2023-01-31T03:56:17;100247.22;;;13.51;54.52
8039;BME280;4062;49.844;8.120;2023-01-31T03:58:22;100243.69;;;13.52;54.46
8039;BME280;4062;49.844;8.120;2023-01-31T04:00:26;100247.22;;;13.51;54.49
8039;BME280;4062;49.844;8.120;2023-01-31T04:02:35;100244.56;;;13.51;54.45
8039;BME280;4062;49.844;8.120;2023-01-31T04:04:40;100252.53;;;13.51;54.49
8039;BME280;4062;49.844;8.120;2023-01-31T04:06:43;100249.00;;;13.50;54.70
8039;BME280;4062;49.844;8.120;2023-01-31T04:08:43;100253.44;;;13.50;54.33
8039;BME280;4062;49.844;8.120;2023-01-31T04:10:44;100251.66;;;13.50;54.50
8039;BME280;4062;49.844;8.120;2023-01-31T04:12:45;100253.44;;;13.50;54.50
8039;BME280;4062;49.844;8.120;2023-01-31T04:14:46;100251.66;;;13.50;54.50
8039;BME280;4062;49.844;8.120;2023-01-31T04:16:46;100243.72;;;13.49;54.55
8039;BME280;4062;49.844;8.120;2023-01-31T04:18:47;100235.78;;;13.49;54.43
8039;BME280;4062;49.844;8.120;2023-01-31T04:20:47;100244.63;;;13.49;54.47
8039;BME280;4062;49.844;8.120;2023-01-31T04:22:48;100247.28;;;13.49;54.48
8039;BME280;4062;49.844;8.120;2023-01-31T04:24:48;100245.53;;;13.48;54.64
8039;BME280;4062;49.844;8.120;2023-01-31T04:26:48;100240.22;;;13.48;54.58
8039;BME280;4062;49.844;8.120;2023-01-31T04:28:49;100234.91;;;13.48;54.70
8039;BME280;4062;49.844;8.120;2023-01-31T04:30:54;100234.03;;;13.48;54.44
8039;BME280;4062;49.844;8.120;2023-01-31T04:32:55;100234.03;;;13.48;54.56
8039;BME280;4062;49.844;8.120;2023-01-31T04:34:55;100231.38;;;13.48;54.57
8039;BME280;4062;49.844;8.120;2023-01-31T04:36:56;100226.06;;;13.48;54.48
8039;BME280;4062;49.844;8.120;2023-01-31T04:38:56;100229.59;;;13.48;54.44
8039;BME280;4062;49.844;8.120;2023-01-31T04:40:57;100218.13;;;13.46;54.57
8039;BME280;4062;49.844;8.120;2023-01-31T04:42:57;100224.31;;;13.47;54.42
8039;BME280;4062;49.844;8.120;2023-01-31T04:44:57;100224.31;;;13.47;54.36
8039;BME280;4062;49.844;8.120;2023-01-31T04:46:58;100226.06;;;13.48;54.41
8039;BME280;4062;49.844;8.120;2023-01-31T04:48:59;100221.66;;;13.47;54.44
8039;BME280;4062;49.844;8.120;2023-01-31T04:50:59;100222.53;;;13.47;54.57
8039;BME280;4062;49.844;8.120;2023-01-31T04:53:00;100219.00;;;13.47;54.38
8039;BME280;4062;49.844;8.120;2023-01-31T04:55:01;100221.66;;;13.47;54.43
8039;BME280;4062;49.844;8.120;2023-01-31T04:57:02;100211.94;;;13.45;54.33
8039;BME280;4062;49.844;8.120;2023-01-31T04:59:03;100211.94;;;13.45;54.56
8039;BME280;4062;49.844;8.120;2023-01-31T05:01:03;100219.91;;;13.45;54.38
8039;BME280;4062;49.844;8.120;2023-01-31T05:03:03;100219.91;;;13.45;54.25
8039;BME280;4062;49.844;8.120;2023-01-31T05:05:05;100216.38;;;13.45;54.44
8039;BME280;4062;49.844;8.120;2023-01-31T05:07:05;100213.72;;;13.45;54.54
8039;BME280;4062;49.844;8.120;2023-01-31T05:09:06;100224.34;;;13.45;54.42
8039;BME280;4062;49.844;8.120;2023-01-31T05:11:07;100225.22;;;13.45;54.36
8039;BME280;4062;49.844;8.120;2023-01-31T05:13:08;100218.19;;;13.44;54.50
8039;BME280;4062;49.844;8.120;2023-01-31T05:15:09;100223.50;;;13.44;54.36
8039;BME280;4062;49.844;8.120;2023-01-31T05:17:10;100220.84;;;13.44;54.48
8039;BME280;4062;49.844;8.120;2023-01-31T05:19:15;100212.88;;;13.44;54.41
8039;BME280;4062;49.844;8.120;2023-01-31T05:21:15;100204.00;;;13.44;54.37
8039;BME280;4062;49.844;8.120;2023-01-31T05:23:16;100208.47;;;13.43;54.47
8039;BME280;4062;49.844;8.120;2023-01-31T05:25:17;100208.47;;;13.43;54.47
8039;BME280;4062;49.844;8.120;2023-01-31T05:27:18;100200.50;;;13.43;54.34
8039;BME280;4062;49.844;8.120;2023-01-31T05:29:18;100196.97;;;13.43;54.42
8039;BME280;4062;49.844;8.120;2023-01-31T05:31:19;100208.47;;;13.42;54.50
8039;BME280;4062;49.844;8.120;2023-01-31T05:33:19;100208.47;;;13.43;54.27
8039;BME280;4062;49.844;8.120;2023-01-31T05:35:20;100212.88;;;13.43;54.39
8039;BME280;4062;49.844;8.120;2023-01-31T05:37:21;100212.03;;;13.42;54.40
8039;BME280;4062;49.844;8.120;2023-01-31T05:39:21;100210.22;;;13.43;54.41
8039;BME280;4062;49.844;8.120;2023-01-31T05:41:22;100214.69;;;13.42;54.56
8039;BME280;4062;49.844;8.120;2023-01-31T05:43:22;100212.94;;;13.41;54.74
8039;BME280;4062;49.844;8.120;2023-01-31T05:45:23;100212.03;;;13.41;54.47
8039;BME280;4062;49.844;8.120;2023-01-31T05:47:23;100215.59;;;13.41;54.20
8039;BME280;4062;49.844;8.120;2023-01-31T05:49:24;100212.03;;;13.41;54.34
8039;BME280;4062;49.844;8.120;2023-01-31T05:51:24;100212.03;;;13.41;54.38
8039;BME280;4062;49.844;8.120;2023-01-31T05:53:25;100205.88;;;13.40;54.34
8039;BME280;4062;49.844;8.120;2023-01-31T05:55:26;100212.97;;;13.40;54.41
8039;BME280;4062;49.844;8.120;2023-01-31T05:57:26;100210.31;;;13.40;54.50
8039;BME280;4062;49.844;8.120;2023-01-31T05:59:27;100220.00;;;13.41;54.52
8039;BME280;4062;49.844;8.120;2023-01-31T06:01:30;100210.31;;;13.40;53.95
8039;BME280;4062;49.844;8.120;2023-01-31T06:03:30;100205.88;;;13.40;54.44
8039;BME280;4062;49.844;8.120;2023-01-31T06:05:31;100206.78;;;13.39;54.36
8039;BME280;4062;49.844;8.120;2023-01-31T06:07:32;100201.47;;;13.39;54.60
8039;BME280;4062;49.844;8.120;2023-01-31T06:09:32;100195.25;;;13.40;54.58
8039;BME280;4062;49.844;8.120;2023-01-31T06:11:33;100193.47;;;13.41;54.62
8039;BME280;4062;49.844;8.120;2023-01-31T06:13:33;100196.09;;;13.42;54.52
8039;BME280;4062;49.844;8.120;2023-01-31T06:15:34;100194.31;;;13.43;54.37
8039;BME280;4062;49.844;8.120;2023-01-31T06:17:35;100190.75;;;13.44;54.69
8039;BME280;4062;49.844;8.120;2023-01-31T06:19:36;100197.75;;;13.47;54.56
8039;BME280;4062;49.844;8.120;2023-01-31T06:21:36;100196.84;;;13.48;54.70
8039;BME280;4062;49.844;8.120;2023-01-31T06:23:37;100204.81;;;13.49;54.74
8039;BME280;4062;49.844;8.120;2023-01-31T06:25:37;100197.66;;;13.51;54.90
8039;BME280;4062;49.844;8.120;2023-01-31T06:27:37;100198.50;;;13.53;54.91
8039;BME280;4062;49.844;8.120;2023-01-31T06:29:38;100199.34;;;13.55;54.69
8039;BME280;4062;49.844;8.120;2023-01-31T06:31:38;100196.63;;;13.57;54.92
8039;BME280;4062;49.844;8.120;2023-01-31T06:33:42;100187.72;;;13.59;54.69
8039;BME280;4062;49.844;8.120;2023-01-31T06:35:42;100183.25;;;13.62;54.85
8039;BME280;4062;49.844;8.120;2023-01-31T06:37:43;100179.63;;;13.64;54.76
8039;BME280;4062;49.844;8.120;2023-01-31T06:39:43;100191.09;;;13.66;54.75
8039;BME280;4062;49.844;8.120;2023-01-31T06:41:44;100181.31;;;13.68;54.82
8039;BME280;4062;49.844;8.120;2023-01-31T06:43:44;100185.69;;;13.71;54.61
8039;BME280;4062;49.844;8.120;2023-01-31T06:45:45;100188.31;;;13.72;54.77
8039;BME280;4062;49.844;8.120;2023-01-31T06:47:45;100191.78;;;13.74;54.73
8039;BME280;4062;49.844;8.120;2023-01-31T06:49:45;100196.19;;;13.75;54.72
8039;BME280;4062;49.844;8.120;2023-01-31T06:51:46;100199.69;;;13.78;54.83
8039;BME280;4062;49.844;8.120;2023-01-31T06:53:46;100188.19;;;13.77;54.81
8039;BME280;4062;49.844;8.120;2023-01-31T06:55:47;100197.91;;;13.78;54.69
8039;BME280;4062;49.844;8.120;2023-01-31T06:57:48;100194.34;;;13.79;54.84
8039;BME280;4062;49.844;8.120;2023-01-31T06:59:49;100199.66;;;13.79;54.73
8039;BME280;4062;49.844;8.120;2023-01-31T07:01:49;100205.84;;;13.80;54.73
8039;BME280;4062;49.844;8.120;2023-01-31T07:03:50;100199.66;;;13.79;54.88
8039;BME280;4062;49.844;8.120;2023-01-31T07:05:50;100202.31;;;13.79;54.73
8039;BME280;4062;49.844;8.120;2023-01-31T07:07:51;100200.53;;;13.80;54.72
8039;BME280;4062;49.844;8.120;2023-01-31T07:09:51;100197.88;;;13.80;54.81
8039;BME280;4062;49.844;8.120;2023-01-31T07:11:53;100204.06;;;13.80;54.68
8039;BME280;4062;49.844;8.120;2023-01-31T07:13:53;100205.88;;;13.78;54.67
8039;BME280;4062;49.844;8.120;2023-01-31T07:15:54;100209.41;;;13.79;54.70
8039;BME280;4062;49.844;8.120;2023-01-31T07:17:58;100214.72;;;13.79;54.88
8039;BME280;4062;49.844;8.120;2023-01-31T07:19:59;100218.25;;;13.79;54.65
8039;BME280;4062;49.844;8.120;2023-01-31T07:21:59;100224.47;;;13.78;54.74
8039;BME280;4062;49.844;8.120;2023-01-31T07:23:59;100223.59;;;13.78;54.76
8039;BME280;4062;49.844;8.120;2023-01-31T07:26:02;100219.19;;;13.76;54.65
8039;BME280;4062;49.844;8.120;2023-01-31T07:28:03;100228.03;;;13.77;54.88
8039;BME280;4062;49.844;8.120;2023-01-31T07:30:04;100235.13;;;13.76;54.76
8039;BME280;4062;49.844;8.120;2023-01-31T07:32:05;100230.66;;;13.77;54.84
8039;BME280;4062;49.844;8.120;2023-01-31T07:34:06;100223.66;;;13.76;54.63
8039;BME280;4062;49.844;8.120;2023-01-31T07:36:07;100222.75;;;13.75;54.57
8039;BME280;4062;49.844;8.120;2023-01-31T07:38:07;100228.97;;;13.76;54.48
8039;BME280;4062;49.844;8.120;2023-01-31T07:40:09;100224.56;;;13.75;54.67
8039;BME280;4062;49.844;8.120;2023-01-31T07:42:10;100221.91;;;13.75;54.70
8039;BME280;4062;49.844;8.120;2023-01-31T07:44:10;100219.25;;;13.73;54.71
8039;BME280;4062;49.844;8.120;2023-01-31T07:46:11;100220.16;;;13.74;54.58
8039;BME280;4062;49.844;8.120;2023-01-31T07:48:11;100227.22;;;13.73;54.54
8039;BME280;4062;49.844;8.120;2023-01-31T07:50:12;100233.47;;;13.72;54.55
8039;BME280;4062;49.844;8.120;2023-01-31T07:52:12;100237.84;;;13.73;54.69
8039;BME280;4062;49.844;8.120;2023-01-31T07:54:13;100229.94;;;13.72;54.61
8039;BME280;4062;49.844;8.120;2023-01-31T07:56:15;100236.13;;;13.72;54.64
8039;BME280;4062;49.844;8.120;2023-01-31T07:58:16;100240.53;;;13.72;54.46
8039;BME280;4062;49.844;8.120;2023-01-31T08:00:17;100239.69;;;13.71;54.90
8039;BME280;4062;49.844;8.120;2023-01-31T08:02:36;100235.28;;;13.70;54.58
8039;BME280;4062;49.844;8.120;2023-01-31T08:04:55;100229.09;;;13.70;54.77
8039;BME280;4062;49.844;8.120;2023-01-31T08:06:55;100230.81;;;13.71;54.66
8039;BME280;4062;49.844;8.120;2023-01-31T08:08:57;100232.63;;;13.70;54.69
8039;BME280;4062;49.844;8.120;2023-01-31T08:10:57;100228.22;;;13.69;54.71
8039;BME280;4062;49.844;8.120;2023-01-31T08:12:58;100227.34;;;13.69;54.58
8039;BME280;4062;49.844;8.120;2023-01-31T08:14:58;100225.56;;;13.69;54.53
8039;BME280;4062;49.844;8.120;2023-01-31T08:16:59;100231.78;;;13.68;54.63
8039;BME280;4062;49.844;8.120;2023-01-31T08:18:59;100234.44;;;13.68;54.65
8039;BME280;4062;49.844;8.120;2023-01-31T08:21:00;100229.13;;;13.68;54.74
8039;BME280;4062;49.844;8.120;2023-01-31T08:23:00;100236.22;;;13.68;54.67
8039;BME280;4062;49.844;8.120;2023-01-31T08:25:00;100230.03;;;13.67;54.65
8039;BME280;4062;49.844;8.120;2023-01-31T08:27:01;100229.19;;;13.67;54.74
8039;BME280;4062;49.844;8.120;2023-01-31T08:29:01;100238.91;;;13.68;54.58
8039;BME280;4062;49.844;8.120;2023-01-31T08:31:03;100241.53;;;13.68;54.62
8039;BME280;4062;49.844;8.120;2023-01-31T08:33:04;100233.59;;;13.66;54.71
8039;BME280;4062;49.844;8.120;2023-01-31T08:35:04;100232.75;;;13.66;54.50
8039;BME280;4062;49.844;8.120;2023-01-31T08:37:05;100250.41;;;13.67;54.59
8039;BME280;4062;49.844;8.120;2023-01-31T08:39:06;100252.16;;;13.68;54.62
8039;BME280;4062;49.844;8.120;2023-01-31T08:41:06;100258.34;;;13.68;54.65
8039;BME280;4062;49.844;8.120;2023-01-31T08:43:07;100260.94;;;13.70;54.48
8039;BME280;4062;49.844;8.120;2023-01-31T08:45:08;100270.66;;;13.72;54.53
8039;BME280;4062;49.844;8.120;2023-01-31T08:47:09;100255.56;;;13.73;54.49
8039;BME280;4062;49.844;8.120;2023-01-31T08:49:09;100250.22;;;13.74;54.62
8039;BME280;4062;49.844;8.120;2023-01-31T08:51:12;100244.88;;;13.76;54.63
8039;BME280;4062;49.844;8.120;2023-01-31T08:53:12;100240.44;;;13.76;54.56
8039;BME280;4062;49.844;8.120;2023-01-31T08:55:13;100244.84;;;13.78;54.54
8039;BME280;4062;49.844;8.120;2023-01-31T08:57:13;100239.53;;;13.78;54.36
8039;BME280;4062;49.844;8.120;2023-01-31T08:59:14;100236.81;;;13.79;54.49
8039;BME280;4062;49.844;8.120;2023-01-31T09:01:17;100234.16;;;13.79;54.58
8039;BME280;4062;49.844;8.120;2023-01-31T09:03:18;100234.16;;;13.79;54.79
8039;BME280;4062;49.844;8.120;2023-01-31T09:05:19;100235.06;;;13.80;54.43
8039;BME280;4062;49.844;8.120;2023-01-31T09:07:19;100227.09;;;13.80;54.41
8039;BME280;4062;49.844;8.120;2023-01-31T09:09:20;100223.56;;;13.79;54.20
8039;BME280;4062;49.844;8.120;2023-01-31T09:11:21;100215.59;;;13.79;54.54
8039;BME280;4062;49.844;8.120;2023-01-31T09:13:21;100211.19;;;13.78;54.62
8039;BME280;4062;49.844;8.120;2023-01-31T09:15:22;100220.03;;;13.79;54.54
8039;BME280;4062;49.844;8.120;2023-01-31T09:17:22;100213.84;;;13.78;54.26
8039;BME280;4062;49.844;8.120;2023-01-31T09:19:23;100219.13;;;13.78;54.44
8039;BME280;4062;49.844;8.120;2023-01-31T09:21:24;100205.00;;;13.78;54.56
8039;BME280;4062;49.844;8.120;2023-01-31T09:23:25;100211.19;;;13.78;54.62
8039;BME280;4062;49.844;8.120;2023-01-31T09:25:26;100205.00;;;13.78;54.54
8039;BME280;4062;49.844;8.120;2023-01-31T09:27:27;100216.53;;;13.76;54.54
8039;BME280;4062;49.844;8.120;2023-01-31T09:29:28;100213.03;;;13.76;54.57
8039;BME280;4062;49.844;8.120;2023-01-31T09:31:29;100226.31;;;13.76;54.57
8039;BME280;4062;49.844;8.120;2023-01-31T09:33:31;100229.81;;;13.76;54.43
8039;BME280;4062;49.844;8.120;2023-01-31T09:35:32;100235.13;;;13.76;54.58
8039;BME280;4062;49.844;8.120;2023-01-31T09:37:32;100229.88;;;13.75;54.67
8039;BME280;4062;49.844;8.120;2023-01-31T09:39:33;100234.28;;;13.74;54.54
8039;BME280;4062;49.844;8.120;2023-01-31T09:41:41;100240.47;;;13.75;54.49
8039;BME280;4062;49.844;8.120;2023-01-31T09:43:46;100236.94;;;13.74;54.59
8039;BME280;4062;49.844;8.120;2023-01-31T09:45:49;100234.28;;;13.74;54.49
8039;BME280;4062;49.844;8.120;2023-01-31T09:47:55;100231.69;;;13.73;54.59
8039;BME280;4062;49.844;8.120;2023-01-31T09:50:02;100232.53;;;13.73;54.63
8039;BME280;4062;49.844;8.120;2023-01-31T09:52:04;100227.22;;;13.73;54.60
8039;BME280;4062;49.844;8.120;2023-01-31T09:54:13;100239.66;;;13.73;54.44
8039;BME280;4062;49.844;8.120;2023-01-31T10:00:47;100215.78;;;13.71;54.47
8039;BME280;4062;49.844;8.120;2023-01-31T10:05:16;100217.56;;;13.71;54.65
8039;BME280;4062;49.844;8.120;2023-01-31T10:07:27;100229.09;;;13.70;54.52
8039;BME280;4062;49.844;8.120;2023-01-31T10:10:02;100248.56;;;13.70;54.48
8039;BME280;4062;49.844;8.120;2023-01-31T10:12:21;100255.63;;;13.70;54.49
8039;BME280;4062;49.844;8.120;2023-01-31T10:14:29;100224.66;;;13.69;54.25
8039;BME280;4062;49.844;8.120;2023-01-31T10:16:33;100212.28;;;13.69;54.48
8039;BME280;4062;49.844;8.120;2023-01-31T10:18:40;100222.03;;;13.69;54.39
8039;BME280;4062;49.844;8.120;2023-01-31T10:20:47;100220.31;;;13.68;54.53
8039;BME280;4062;49.844;8.120;2023-01-31T10:22:57;100226.47;;;13.68;54.46
8039;BME280;4062;49.844;8.120;2023-01-31T10:27:39;100210.53;;;13.68;54.13
8039;BME280;4062;49.844;8.120;2023-01-31T10:29:44;100209.69;;;13.68;54.56
8039;BME280;4062;49.844;8.120;2023-01-31T10:36:00;100204.31;;;13.69;54.51
8039;BME280;4062;49.844;8.120;2023-01-31T10:38:18;100207.84;;;13.70;54.53
8039;BME280;4062;49.844;8.120;2023-01-31T10:40:27;100222.84;;;13.72;54.53
8039;BME280;4062;49.844;8.120;2023-01-31T10:42:32;100231.69;;;13.73;54.33
8039;BME280;4062;49.844;8.120;2023-01-31T10:44:43;100234.28;;;13.74;54.45
8039;BME280;4062;49.844;8.120;2023-01-31T10:46:46;100240.44;;;13.76;54.27
8039;BME280;4062;49.844;8.120;2023-01-31T10:48:47;100223.59;;;13.78;54.47
8039;BME280;4062;49.844;8.120;2023-01-31T10:51:15;100221.81;;;13.78;54.40
8039;BME280;4062;49.844;8.120;2023-01-31T10:55:44;100200.56;;;13.78;54.60
8039;BME280;4062;49.844;8.120;2023-01-31T10:57:48;100191.69;;;13.79;54.76
8039;BME280;4062;49.844;8.120;2023-01-31T10:59:49;100189.91;;;13.80;54.45
8039;BME280;4062;49.844;8.120;2023-01-31T11:01:50;100166.03;;;13.78;54.58
8039;BME280;4062;49.844;8.120;2023-01-31T11:03:53;100165.13;;;13.79;54.41
8039;BME280;4062;49.844;8.120;2023-01-31T11:05:56;100156.28;;;13.79;54.43
8039;BME280;4062;49.844;8.120;2023-01-31T11:07:57;100150.97;;;13.79;54.50
8039;BME280;4062;49.844;8.120;2023-01-31T11:10:21;100157.16;;;13.79;54.59
8039;BME280;4062;49.844;8.120;2023-01-31T11:12:40;100152.75;;;13.78;54.39
8039;BME280;4062;49.844;8.120;2023-01-31T11:14:41;100160.72;;;13.78;54.42
8039;BME280;4062;49.844;8.120;2023-01-31T11:16:41;100142.13;;;13.78;54.43
8039;BME280;4062;49.844;8.120;2023-01-31T11:18:45;100138.59;;;13.78;54.51
8039;BME280;4062;49.844;8.120;2023-01-31T11:20:47;100132.41;;;13.77;54.42
8039;BME280;4062;49.844;8.120;2023-01-31T11:22:47;100116.47;;;13.77;54.34
8039;BME280;4062;49.844;8.120;2023-01-31T11:24:48;100115.63;;;13.76;54.33
8039;BME280;4062;49.844;8.120;2023-01-31T11:27:02;100107.66;;;13.76;54.25
8039;BME280;4062;49.844;8.120;2023-01-31T11:29:08;100102.25;;;13.80;54.32
8039;BME280;4062;49.844;8.120;2023-01-31T11:31:19;100083.56;;;13.83;54.43
8039;BME280;4062;49.844;8.120;2023-01-31T11:33:42;100077.44;;;13.81;54.54
8039;BME280;4062;49.844;8.120;2023-01-31T11:35:50;100075.69;;;13.80;54.73
8039;BME280;4062;49.844;8.120;2023-01-31T11:37:53;100072.16;;;13.79;54.80
8039;BME280;4062;49.844;8.120;2023-01-31T11:39:57;100073.06;;;13.78;54.49
8039;BME280;4062;49.844;8.120;2023-01-31T11:42:12;100064.25;;;13.78;54.63
8039;BME280;4062;49.844;8.120;2023-01-31T11:44:18;100059.84;;;13.76;54.48